createdAt,value
2023-04-12T00:01:20.085Z,-0.40
2023-04-12T00:03:51.020Z,-0.40
2023-04-12T00:06:19.089Z,-0.40
2023-04-12T00:08:46.940Z,-0.50
2023-04-12T00:11:14.524Z,-0.60
2023-04-12T00:13:42.016Z,-0.70
2023-04-12T00:16:10.106Z,-0.70
2023-04-12T00:18:37.766Z,-0.80
2023-04-12T00:21:05.576Z,-0.70
2023-04-12T00:23:33.830Z,-0.60
2023-04-12T00:26:01.325Z,-0.70
2023-04-12T00:28:28.859Z,-0.80
2023-04-12T00:30:56.468Z,-0.80
2023-04-12T00:33:24.047Z,-0.90
2023-04-12T00:35:51.766Z,-0.80
2023-04-12T00:38:19.517Z,-0.80
2023-04-12T00:40:47.016Z,-0.80
2023-04-12T00:43:18.932Z,-0.90
2023-04-12T00:45:47.809Z,-0.80
2023-04-12T00:48:16.269Z,-0.60
2023-04-12T00:50:47.619Z,-0.60
2023-04-12T00:53:15.758Z,-0.80
2023-04-12T00:55:44.983Z,-0.90
2023-04-12T00:58:14.204Z,-1.00
2023-04-12T01:00:42.184Z,-1.10
2023-04-12T01:03:09.961Z,-1.00
2023-04-12T01:06:09.614Z,-1.00
2023-04-12T01:09:08.335Z,-1.00
2023-04-12T01:11:44.983Z,-1.10
2023-04-12T01:14:22.973Z,-1.20
2023-04-12T01:16:58.138Z,-1.30
2023-04-12T01:19:36.067Z,-1.40
2023-04-12T01:22:22.924Z,-1.40
2023-04-12T01:24:59.458Z,-1.30
2023-04-12T01:27:48.403Z,-1.20
2023-04-12T01:30:19.518Z,-1.40
2023-04-12T01:32:53.335Z,-1.30
2023-04-12T01:35:22.810Z,-1.30
2023-04-12T01:37:50.667Z,-1.40
2023-04-12T01:40:19.421Z,-1.40
2023-04-12T01:42:46.915Z,-1.30
2023-04-12T01:45:14.894Z,-1.20
2023-04-12T01:47:43.111Z,-1.20
2023-04-12T01:50:22.771Z,-1.20
2023-04-12T01:53:09.342Z,-1.40
2023-04-12T01:55:39.979Z,-1.50
2023-04-12T01:58:09.339Z,-1.30
2023-04-12T02:00:37.746Z,-1.30
2023-04-12T02:03:06.824Z,-1.30
2023-04-12T02:05:34.781Z,-1.40
2023-04-12T02:08:02.968Z,-1.40
2023-04-12T02:10:32.252Z,-1.30
2023-04-12T02:13:03.704Z,-1.30
2023-04-12T02:15:31.373Z,-1.10
2023-04-12T02:18:00.533Z,-1.10
2023-04-12T02:20:28.497Z,-1.30
2023-04-12T02:22:56.145Z,-1.40
2023-04-12T02:25:23.813Z,-1.30
2023-04-12T02:27:51.532Z,-1.30
2023-04-12T02:30:19.138Z,-1.40
2023-04-12T02:32:53.654Z,-1.40
2023-04-12T02:35:28.590Z,-1.40
2023-04-12T02:38:03.951Z,-1.50
2023-04-12T02:40:31.542Z,-1.40
2023-04-12T02:42:59.472Z,-1.30
2023-04-12T02:45:27.669Z,-1.20
2023-04-12T02:47:56.545Z,-1.20
2023-04-12T02:50:29.490Z,-1.20
2023-04-12T02:53:04.785Z,-1.30
2023-04-12T02:55:32.799Z,-1.40
2023-04-12T02:58:03.275Z,-1.30
2023-04-12T03:00:31.080Z,-1.30
2023-04-12T03:03:03.087Z,-1.20
2023-04-12T03:05:32.298Z,-1.10
2023-04-12T03:08:01.136Z,-1.10
2023-04-12T03:10:38.414Z,-1.30
2023-04-12T03:13:06.665Z,-1.20
2023-04-12T03:15:37.091Z,-1.20
2023-04-12T03:18:05.054Z,-1.20
2023-04-12T03:20:46.048Z,-1.10
2023-04-12T03:23:15.968Z,-1.10
2023-04-12T03:25:46.791Z,-1.20
2023-04-12T03:28:32.798Z,-1.30
2023-04-12T03:31:02.971Z,-1.30
2023-04-12T03:33:48.503Z,-1.30
2023-04-12T03:36:23.395Z,-1.20
2023-04-12T03:38:58.748Z,-1.30
2023-04-12T03:41:28.342Z,-1.30
2023-04-12T03:43:56.381Z,-1.30
2023-04-12T03:46:24.190Z,-1.20
2023-04-12T03:48:57.323Z,-1.10
2023-04-12T03:51:27.015Z,-1.00
2023-04-12T03:54:02.815Z,-1.00
2023-04-12T03:56:36.633Z,-0.90
2023-04-12T03:59:07.911Z,-0.90
2023-04-12T04:01:36.830Z,-0.70
2023-04-12T04:04:05.445Z,-0.70
2023-04-12T04:06:34.333Z,-0.80
2023-04-12T04:09:02.239Z,-0.90
2023-04-12T04:11:33.914Z,-0.90
2023-04-12T04:14:07.039Z,-0.90
2023-04-12T04:16:34.958Z,-0.90
2023-04-12T04:19:05.011Z,-1.00
2023-04-12T04:21:32.752Z,-0.90
2023-04-12T04:24:01.308Z,-0.90
2023-04-12T04:26:33.746Z,-0.80
2023-04-12T04:29:29.129Z,-0.80
2023-04-12T04:31:58.682Z,-0.80
2023-04-12T04:34:27.210Z,-0.90
2023-04-12T04:37:03.456Z,-0.80
2023-04-12T04:39:30.977Z,-0.80
2023-04-12T04:42:00.133Z,-0.70
2023-04-12T04:44:36.169Z,-0.60
2023-04-12T04:47:08.689Z,-0.60
2023-04-12T04:49:37.854Z,-0.60
2023-04-12T04:52:15.476Z,-0.50
2023-04-12T04:54:43.092Z,-0.30
2023-04-12T04:57:11.701Z,-0.20
2023-04-12T04:59:41.012Z,-0.10
2023-04-12T05:02:16.717Z,0.00
2023-04-12T05:04:45.606Z,-0.10
2023-04-12T05:07:16.539Z,-0.10
2023-04-12T05:09:46.545Z,0.00
2023-04-12T05:12:14.392Z,0.00
2023-04-12T05:14:49.807Z,0.10
2023-04-12T05:17:19.249Z,0.00
2023-04-12T05:19:46.824Z,0.10
2023-04-12T05:22:14.641Z,0.20
2023-04-12T05:24:42.371Z,0.20
2023-04-12T05:27:09.974Z,0.40
2023-04-12T05:29:37.834Z,0.50
2023-04-12T05:32:07.983Z,0.60
2023-04-12T05:34:37.715Z,0.80
2023-04-12T05:37:05.501Z,1.00
2023-04-12T05:39:37.549Z,1.10
2023-04-12T05:42:06.050Z,1.20
2023-04-12T05:44:36.907Z,1.20
2023-04-12T05:47:06.105Z,1.30
2023-04-12T05:49:33.633Z,1.20
2023-04-12T05:52:05.678Z,1.10
2023-04-12T05:54:33.751Z,1.30
2023-04-12T05:57:01.270Z,1.30
2023-04-12T05:59:30.903Z,1.40
2023-04-12T06:01:59.145Z,1.50
2023-04-12T06:04:42.017Z,1.60
2023-04-12T06:07:12.072Z,1.50
2023-04-12T06:09:39.593Z,1.40
2023-04-12T06:12:07.303Z,1.50
2023-04-12T06:14:36.586Z,1.50
2023-04-12T06:17:04.628Z,1.60
2023-04-12T06:19:32.193Z,1.80
2023-04-12T06:21:59.739Z,1.80
2023-04-12T06:24:27.357Z,1.90
2023-04-12T06:26:55.905Z,1.80
2023-04-12T06:29:23.746Z,1.70
2023-04-12T06:31:51.856Z,1.70
2023-04-12T06:34:19.547Z,1.80
2023-04-12T06:36:47.863Z,1.80
2023-04-12T06:39:17.067Z,2.00
2023-04-12T06:41:47.334Z,2.00
2023-04-12T06:44:19.830Z,2.00
2023-04-12T06:46:47.384Z,2.10
2023-04-12T06:49:14.900Z,2.20
2023-04-12T06:51:42.390Z,2.30
2023-04-12T06:54:10.055Z,2.40
2023-04-12T06:56:38.283Z,2.40
2023-04-12T06:59:05.949Z,2.50
2023-04-12T07:01:33.416Z,2.60
2023-04-12T07:04:01.194Z,2.70
2023-04-12T07:06:28.847Z,2.70
2023-04-12T07:08:56.601Z,2.70
2023-04-12T07:11:24.510Z,2.90
2023-04-12T07:13:52.058Z,3.10
2023-04-12T07:16:19.655Z,3.20
2023-04-12T07:18:47.670Z,3.20
2023-04-12T07:21:17.455Z,3.30
2023-04-12T07:23:46.583Z,3.50
2023-04-12T07:26:14.152Z,3.50
2023-04-12T07:28:41.692Z,3.70
2023-04-12T07:31:09.288Z,3.80
2023-04-12T07:33:38.815Z,3.70
2023-04-12T07:36:08.524Z,3.90
2023-04-12T07:38:36.205Z,3.90
2023-04-12T07:41:03.885Z,4.00
2023-04-12T07:43:31.436Z,4.20
2023-04-12T07:45:59.430Z,4.10
2023-04-12T07:48:27.054Z,4.20
2023-04-12T07:50:54.577Z,4.00
2023-04-12T07:53:28.973Z,3.90
2023-04-12T07:55:56.701Z,4.00
2023-04-12T07:58:25.344Z,4.00
2023-04-12T08:00:53.846Z,4.10
2023-04-12T08:03:21.574Z,4.30
2023-04-12T08:05:53.718Z,4.60
2023-04-12T08:08:22.815Z,4.70
2023-04-12T08:10:51.781Z,4.70
2023-04-12T08:13:19.938Z,4.80
2023-04-12T08:15:47.894Z,5.00
2023-04-12T08:18:15.894Z,5.20
2023-04-12T08:20:44.262Z,5.00
2023-04-12T08:23:12.448Z,5.20
2023-04-12T08:25:40.173Z,5.30
2023-04-12T08:28:08.404Z,5.50
2023-04-12T08:30:36.721Z,5.50
2023-04-12T08:33:04.510Z,5.50
2023-04-12T08:35:32.825Z,5.60
2023-04-12T08:38:06.895Z,5.80
2023-04-12T08:40:35.454Z,5.80
2023-04-12T08:43:07.615Z,5.90
2023-04-12T08:45:36.437Z,6.10
2023-04-12T08:48:06.172Z,6.30
2023-04-12T08:50:34.354Z,6.30
2023-04-12T08:53:02.550Z,6.70
2023-04-12T08:55:30.593Z,6.70
2023-04-12T08:57:58.899Z,7.00
2023-04-12T09:00:27.142Z,7.20
2023-04-12T09:02:54.821Z,7.50
2023-04-12T09:05:31.355Z,7.50
2023-04-12T09:07:58.925Z,7.60
2023-04-12T09:10:38.592Z,7.70
2023-04-12T09:13:06.777Z,7.60
2023-04-12T09:15:35.068Z,7.50
2023-04-12T09:18:10.704Z,7.30
2023-04-12T09:20:39.136Z,7.50
2023-04-12T09:23:21.659Z,7.20
2023-04-12T09:25:52.012Z,7.50
2023-04-12T09:28:25.979Z,7.50
2023-04-12T09:30:58.890Z,7.90
2023-04-12T09:33:39.855Z,8.30
2023-04-12T09:36:14.412Z,8.60
2023-04-12T09:38:58.983Z,8.50
2023-04-12T09:41:28.820Z,8.90
2023-04-12T09:43:56.521Z,9.30
2023-04-12T09:46:24.657Z,9.50
2023-04-12T09:48:54.254Z,10.00
2023-04-12T09:51:32.981Z,10.20
2023-04-12T09:54:03.304Z,10.30
2023-04-12T09:56:36.512Z,10.50
2023-04-12T09:59:06.085Z,10.90
2023-04-12T10:01:39.699Z,11.40
2023-04-12T10:04:09.413Z,11.20
2023-04-12T10:06:37.974Z,10.80
2023-04-12T10:09:06.820Z,11.10
2023-04-12T10:11:34.616Z,11.10
2023-04-12T10:14:07.020Z,11.10
2023-04-12T10:16:35.583Z,11.00
2023-04-12T10:19:04.342Z,10.90
2023-04-12T10:21:32.253Z,10.70
2023-04-12T10:24:00.652Z,10.60
2023-04-12T10:26:28.344Z,10.60
2023-04-12T10:29:26.154Z,10.50
2023-04-12T10:31:55.487Z,10.10
2023-04-12T10:34:31.234Z,10.20
2023-04-12T10:36:59.915Z,10.00
2023-04-12T10:39:45.421Z,9.90
2023-04-12T10:42:24.959Z,10.00
2023-04-12T10:44:55.080Z,9.90
2023-04-12T10:47:50.442Z,9.70
2023-04-12T10:50:27.157Z,9.60
2023-04-12T10:53:12.850Z,9.50
2023-04-12T10:55:41.275Z,9.60
2023-04-12T10:58:09.235Z,9.60
2023-04-12T11:00:56.444Z,9.70
2023-04-12T11:03:25.610Z,9.80
2023-04-12T11:06:20.121Z,9.70
2023-04-12T11:09:28.719Z,9.70
2023-04-12T11:11:58.785Z,9.60
2023-04-12T11:14:37.624Z,9.50
2023-04-12T11:17:14.742Z,9.50
2023-04-12T11:19:44.909Z,9.40
2023-04-12T11:22:14.527Z,9.60
2023-04-12T11:24:46.770Z,9.60
2023-04-12T11:27:16.369Z,9.60
2023-04-12T11:29:44.940Z,9.60
2023-04-12T11:32:14.378Z,9.80
2023-04-12T11:34:44.578Z,10.10
2023-04-12T11:37:12.492Z,10.30
2023-04-12T11:39:44.457Z,10.80
2023-04-12T11:42:20.714Z,11.10
2023-04-12T11:44:57.254Z,11.50
2023-04-12T11:47:27.401Z,11.80
2023-04-12T11:49:55.803Z,11.80
2023-04-12T11:52:30.387Z,11.80
2023-04-12T11:55:01.927Z,11.60
2023-04-12T11:57:31.140Z,11.50
2023-04-12T12:00:00.219Z,11.80
2023-04-12T12:02:32.957Z,12.20
2023-04-12T12:05:06.916Z,12.30
2023-04-12T12:07:35.828Z,12.70
2023-04-12T12:10:04.478Z,13.10
2023-04-12T12:12:34.006Z,13.00
2023-04-12T12:15:02.420Z,12.50
2023-04-12T12:17:29.965Z,12.70
2023-04-12T12:19:59.452Z,13.10
2023-04-12T12:22:27.017Z,13.50
2023-04-12T12:24:59.355Z,13.80
2023-04-12T12:27:41.946Z,13.80
2023-04-12T12:30:11.393Z,13.20
2023-04-12T12:32:40.192Z,13.10
2023-04-12T12:35:15.730Z,12.70
2023-04-12T12:37:56.025Z,12.80
2023-04-12T12:40:32.639Z,12.80
2023-04-12T12:43:00.894Z,13.00
2023-04-12T12:45:31.430Z,13.50
2023-04-12T12:48:04.550Z,13.90
2023-04-12T12:50:34.351Z,13.50
2023-04-12T12:53:02.869Z,13.80
2023-04-12T12:55:31.238Z,13.70
2023-04-12T12:58:06.689Z,13.80
2023-04-12T13:00:35.509Z,12.70
2023-04-12T13:03:03.559Z,12.90
2023-04-12T13:05:31.498Z,12.90
2023-04-12T13:07:59.064Z,13.50
2023-04-12T13:10:27.498Z,13.80
2023-04-12T13:12:55.128Z,14.10
2023-04-12T13:15:24.649Z,13.90
2023-04-12T13:17:53.114Z,14.00
2023-04-12T13:20:24.802Z,13.40
2023-04-12T13:22:52.331Z,13.60
2023-04-12T13:25:21.055Z,13.80
2023-04-12T13:27:49.479Z,14.10
2023-04-12T13:30:18.287Z,14.40
2023-04-12T13:32:46.395Z,14.40
2023-04-12T13:35:14.000Z,14.10
2023-04-12T13:37:42.102Z,14.00
2023-04-12T13:40:10.341Z,14.40
2023-04-12T13:42:37.878Z,14.40
2023-04-12T13:45:08.167Z,14.80
2023-04-12T13:47:38.304Z,14.60
2023-04-12T13:50:06.825Z,14.60
2023-04-12T13:52:34.292Z,14.40
2023-04-12T13:55:01.914Z,14.80
2023-04-12T13:57:29.374Z,14.70
2023-04-12T13:59:56.932Z,14.30
2023-04-12T14:02:25.080Z,13.80
2023-04-12T14:04:53.912Z,14.00
2023-04-12T14:07:21.684Z,14.10
2023-04-12T14:09:49.211Z,14.00
2023-04-12T14:12:16.727Z,14.00
2023-04-12T14:14:44.236Z,13.90
2023-04-12T14:17:11.880Z,14.10
2023-04-12T14:19:39.504Z,13.80
2023-04-12T14:22:06.986Z,13.50
2023-04-12T14:24:34.534Z,13.50
2023-04-12T14:27:02.422Z,13.60
2023-04-12T14:29:30.144Z,13.60
2023-04-12T14:31:57.709Z,13.60
2023-04-12T14:34:25.286Z,13.60
2023-04-12T14:36:52.796Z,13.60
2023-04-12T14:39:20.426Z,13.60
2023-04-12T14:41:47.897Z,13.50
2023-04-12T14:44:16.587Z,13.40
2023-04-12T14:46:45.663Z,13.30
2023-04-12T14:49:14.281Z,13.10
2023-04-12T14:51:41.912Z,13.10
2023-04-12T14:54:09.463Z,13.00
2023-04-12T14:56:43.446Z,13.00
2023-04-12T14:59:13.504Z,12.90
2023-04-12T15:01:41.779Z,12.80
2023-04-12T15:04:09.553Z,12.80
2023-04-12T15:06:42.463Z,12.90
2023-04-12T15:09:10.579Z,12.80
2023-04-12T15:11:38.388Z,12.80
2023-04-12T15:14:08.759Z,12.80
2023-04-12T15:16:36.352Z,12.90
2023-04-12T15:19:09.973Z,12.90
2023-04-12T15:21:41.279Z,12.90
2023-04-12T15:24:08.741Z,12.90
2023-04-12T15:26:36.436Z,12.70
2023-04-12T15:29:04.207Z,12.70
2023-04-12T15:31:32.881Z,12.60
2023-04-12T15:34:01.193Z,12.70
2023-04-12T15:36:36.507Z,12.70
2023-04-12T15:39:07.149Z,12.70
2023-04-12T15:41:38.522Z,12.70
2023-04-12T15:44:08.087Z,12.70
2023-04-12T15:46:36.304Z,12.70
2023-04-12T15:49:04.182Z,12.60
2023-04-12T15:51:32.397Z,12.50
2023-04-12T15:54:00.051Z,12.40
2023-04-12T15:56:29.771Z,12.20
2023-04-12T15:58:58.000Z,12.20
2023-04-12T16:01:29.489Z,12.10
2023-04-12T16:03:59.218Z,12.10
2023-04-12T16:06:30.689Z,12.10
2023-04-12T16:08:59.715Z,12.20
2023-04-12T16:11:29.036Z,12.30
2023-04-12T16:13:57.029Z,12.10
2023-04-12T16:16:24.684Z,12.10
2023-04-12T16:18:53.290Z,12.00
2023-04-12T16:21:23.274Z,12.10
2023-04-12T16:23:51.454Z,12.10
2023-04-12T16:26:21.664Z,12.10
2023-04-12T16:28:55.045Z,12.10
2023-04-12T16:31:25.410Z,12.00
2023-04-12T16:33:53.773Z,11.90
2023-04-12T16:36:23.476Z,11.90
2023-04-12T16:38:55.097Z,11.80
2023-04-12T16:41:23.159Z,11.80
2023-04-12T16:43:53.600Z,11.80
2023-04-12T16:46:21.652Z,11.70
2023-04-12T16:48:49.544Z,11.60
2023-04-12T16:51:17.206Z,11.60
2023-04-12T16:53:44.718Z,11.60
2023-04-12T16:56:12.239Z,11.50
2023-04-12T16:58:39.743Z,11.50
2023-04-12T17:01:07.921Z,11.30
2023-04-12T17:03:35.778Z,11.30
2023-04-12T17:06:04.488Z,11.20
2023-04-12T17:08:34.671Z,11.20
2023-04-12T17:11:02.639Z,11.00
2023-04-12T17:13:30.811Z,10.90
2023-04-12T17:15:58.402Z,10.70
2023-04-12T17:18:27.160Z,10.60
2023-04-12T17:20:55.700Z,10.60
2023-04-12T17:23:23.264Z,10.50
2023-04-12T17:25:51.429Z,10.40
2023-04-12T17:28:20.830Z,10.20
2023-04-12T17:30:48.606Z,10.00
2023-04-12T17:33:19.790Z,10.00
2023-04-12T17:35:47.379Z,9.90
2023-04-12T17:38:14.970Z,9.90
2023-04-12T17:40:42.450Z,9.80
2023-04-12T17:43:11.939Z,9.60
2023-04-12T17:45:39.794Z,9.60
2023-04-12T17:48:14.468Z,9.50
2023-04-12T17:50:42.088Z,9.50
2023-04-12T17:53:09.595Z,9.40
2023-04-12T17:55:37.273Z,9.40
2023-04-12T17:58:04.910Z,9.30
2023-04-12T18:00:32.831Z,9.30
2023-04-12T18:03:00.512Z,9.20
2023-04-12T18:05:28.423Z,9.10
2023-04-12T18:07:57.081Z,9.10
2023-04-12T18:10:26.609Z,9.00
2023-04-12T18:12:54.168Z,9.10
2023-04-12T18:15:21.764Z,8.90
2023-04-12T18:17:49.647Z,8.80
2023-04-12T18:20:17.228Z,8.70
2023-04-12T18:22:45.879Z,8.70
2023-04-12T18:25:13.656Z,8.60
2023-04-12T18:27:41.689Z,8.50
2023-04-12T18:30:09.429Z,8.40
2023-04-12T18:32:37.121Z,8.30
2023-04-12T18:35:05.130Z,8.30
2023-04-12T18:37:32.773Z,8.30
2023-04-12T18:40:00.589Z,8.20
2023-04-12T18:42:28.187Z,8.10
2023-04-12T18:44:56.506Z,8.10
2023-04-12T18:47:26.281Z,8.00
2023-04-12T18:49:54.072Z,8.00
2023-04-12T18:52:22.186Z,7.90
2023-04-12T18:54:49.700Z,7.70
2023-04-12T18:57:17.641Z,7.60
2023-04-12T18:59:47.881Z,7.60
2023-04-12T19:02:15.555Z,7.50
2023-04-12T19:04:43.100Z,7.50
2023-04-12T19:07:10.769Z,7.50
2023-04-12T19:09:38.615Z,7.40
2023-04-12T19:12:06.477Z,7.30
2023-04-12T19:14:33.997Z,7.10
2023-04-12T19:17:01.528Z,7.20
2023-04-12T19:19:29.700Z,7.20
2023-04-12T19:21:57.510Z,7.10
2023-04-12T19:24:24.994Z,7.00
2023-04-12T19:26:52.496Z,7.00
2023-04-12T19:29:20.294Z,7.00
2023-04-12T19:31:49.041Z,6.90
2023-04-12T19:34:17.991Z,6.90
2023-04-12T19:36:45.897Z,6.80
2023-04-12T19:39:13.534Z,6.90
2023-04-12T19:41:41.097Z,6.80
2023-04-12T19:44:08.738Z,6.80
2023-04-12T19:46:38.913Z,6.70
2023-04-12T19:49:06.642Z,6.70
2023-04-12T19:51:34.695Z,6.70
2023-04-12T19:54:02.964Z,6.60
2023-04-12T19:56:31.502Z,6.60
2023-04-12T19:58:59.993Z,6.50
2023-04-12T20:01:27.958Z,6.40
2023-04-12T20:03:55.556Z,6.50
2023-04-12T20:06:23.262Z,6.50
2023-04-12T20:08:50.789Z,6.50
2023-04-12T20:11:18.317Z,6.50
2023-04-12T20:13:46.233Z,6.40
2023-04-12T20:16:13.756Z,6.40
2023-04-12T20:18:41.375Z,6.40
2023-04-12T20:21:10.229Z,6.40
2023-04-12T20:23:37.798Z,6.30
2023-04-12T20:26:05.556Z,6.30
2023-04-12T20:28:33.567Z,6.20
2023-04-12T20:31:01.319Z,6.20
2023-04-12T20:33:29.363Z,6.20
2023-04-12T20:35:56.926Z,6.20
2023-04-12T20:38:24.600Z,6.20
2023-04-12T20:40:52.371Z,6.10
2023-04-12T20:43:20.318Z,6.10
2023-04-12T20:45:48.741Z,6.00
2023-04-12T20:48:19.701Z,5.90
2023-04-12T20:50:47.396Z,6.00
2023-04-12T20:53:17.543Z,5.90
2023-04-12T20:55:45.707Z,5.90
2023-04-12T20:58:13.334Z,5.90
2023-04-12T21:00:40.875Z,5.80
2023-04-12T21:03:08.600Z,5.80
2023-04-12T21:05:37.633Z,5.60
2023-04-12T21:08:07.466Z,5.60
2023-04-12T21:10:35.039Z,5.50
2023-04-12T21:13:03.032Z,5.50
2023-04-12T21:15:32.050Z,5.40
2023-04-12T21:17:59.606Z,5.30
2023-04-12T21:20:27.443Z,5.20
2023-04-12T21:22:54.918Z,5.00
2023-04-12T21:25:22.927Z,4.90
2023-04-12T21:27:50.750Z,4.70
2023-04-12T21:30:18.322Z,4.70
2023-04-12T21:32:46.199Z,4.60
2023-04-12T21:35:16.355Z,4.60
2023-04-12T21:37:44.042Z,4.60
2023-04-12T21:40:12.760Z,4.50
2023-04-12T21:42:40.999Z,4.40
2023-04-12T21:45:09.798Z,4.40
2023-04-12T21:47:40.212Z,4.50
2023-04-12T21:50:11.841Z,4.50
2023-04-12T21:52:41.133Z,4.50
2023-04-12T21:55:08.823Z,4.60
2023-04-12T21:57:36.490Z,4.60
2023-04-12T22:00:09.918Z,4.60
2023-04-12T22:02:40.922Z,4.70
2023-04-12T22:05:08.980Z,4.70
2023-04-12T22:07:41.010Z,4.70
2023-04-12T22:10:10.048Z,4.70
2023-04-12T22:12:38.732Z,4.80
2023-04-12T22:15:06.719Z,4.80
2023-04-12T22:17:34.399Z,4.70
2023-04-12T22:20:01.932Z,4.60
2023-04-12T22:22:29.890Z,4.70
2023-04-12T22:24:57.422Z,4.70
2023-04-12T22:27:26.629Z,4.70
2023-04-12T22:29:54.247Z,4.70
2023-04-12T22:32:21.955Z,4.70
2023-04-12T22:34:57.915Z,4.60
2023-04-12T22:37:35.140Z,4.70
2023-04-12T22:40:05.032Z,4.70
2023-04-12T22:42:32.693Z,4.90
2023-04-12T22:45:00.250Z,4.80
2023-04-12T22:47:28.793Z,4.80
2023-04-12T22:49:58.258Z,4.80
2023-04-12T22:52:26.147Z,4.80
2023-04-12T22:54:53.734Z,4.80
2023-04-12T22:57:21.243Z,4.90
2023-04-12T22:59:48.727Z,4.90
2023-04-12T23:02:16.915Z,5.00
2023-04-12T23:04:48.840Z,5.00
2023-04-12T23:07:17.175Z,5.00
2023-04-12T23:09:45.555Z,5.00
2023-04-12T23:12:13.669Z,5.00
2023-04-12T23:14:41.230Z,5.00
2023-04-12T23:17:08.740Z,5.00
2023-04-12T23:19:36.386Z,5.00
2023-04-12T23:22:05.165Z,5.10
2023-04-12T23:24:32.797Z,5.10
2023-04-12T23:27:00.476Z,5.10
2023-04-12T23:29:27.983Z,5.20
2023-04-12T23:31:55.624Z,5.10
2023-04-12T23:34:23.124Z,5.00
2023-04-12T23:36:50.731Z,5.00
2023-04-12T23:39:18.288Z,5.10
2023-04-12T23:41:46.651Z,5.10
2023-04-12T23:44:14.679Z,5.10
2023-04-12T23:46:42.580Z,5.00
2023-04-12T23:49:10.190Z,5.00
2023-04-12T23:51:37.940Z,5.00
2023-04-12T23:54:05.583Z,5.10
2023-04-12T23:56:33.159Z,5.10
2023-04-12T23:59:01.076Z,5.10
